Time;durP1;ratioP1;P1;durP2;ratioP2;P2;SDS_P1;SDS_P2;PMS_P1;PMS_P2;Temp;Humidity;BMP_temperature;BMP_pressure;BME280_temperature;BME280_humidity;BME280_pressure;Samples;Min_cycle;Max_cycle;Signal;HPM_P1;HPM_P2
2022/04/28 00:00:01;;;;;;;8.55;5.85;;;;;;;;;;5000928;28;92392;-72
2022/04/28 00:02:33;;;;;;;;;;;;;;;;;;4997412;28;93255;-72
2022/04/28 00:05:00;;;;;;;11.73;5.75;;;;;;;;;;4997549;28;117095;-72
2022/04/28 00:07:28;;;;;;;7.97;5.22;;;;;;;;;;4997853;28;93428;-71
2022/04/28 00:09:55;;;;;;;11.20;6.95;;;;;;;;;;4997951;28;93491;-72
2022/04/28 00:12:21;;;;;;;13.75;6.05;;;;;;;;;;4998027;28;92400;-72
2022/04/28 00:14:48;;;;;;;9.63;5.50;;;;;;;;;;4998775;28;93147;-72
2022/04/28 00:17:14;;;;;;;8.57;5.70;;;;;;;;;;4997993;28;93162;-72
2022/04/28 00:19:40;;;;;;;10.35;6.45;;;;;;;;;;4983238;28;92335;-72
2022/04/28 00:22:07;;;;;;;14.65;6.95;;;;;;;;;;4995540;28;98083;-71
2022/04/28 00:24:33;;;;;;;10.50;6.40;;;;;;;;;;4980616;28;92492;-71
2022/04/28 00:27:00;;;;;;;11.73;6.32;;;;;;;;;;4997992;28;93434;-71
2022/04/28 00:29:26;;;;;;;10.88;6.68;;;;;;;;;;4979905;28;95029;-72
2022/04/28 00:31:53;;;;;;;14.07;7.10;;;;;;;;;;4997846;28;92228;-72
2022/04/28 00:34:19;;;;;;;10.95;6.18;;;;;;;;;;4997480;28;92470;-71
2022/04/28 00:36:46;;;;;;;10.68;6.95;;;;;;;;;;4997331;28;94312;-73
2022/04/28 00:39:12;;;;;;;11.55;7.25;;;;;;;;;;4998121;28;91809;-72
2022/04/28 00:41:38;;;;;;;14.45;7.47;;;;;;;;;;4982723;28;93676;-71
2022/04/28 00:44:10;;;;;;;13.70;7.70;;;;;;;;;;4979868;28;92642;-72
2022/04/28 00:46:38;;;;;;;13.90;7.18;;;;;;;;;;4996077;28;94526;-72
2022/04/28 00:51:49;;;;;;;9.55;7.30;;;;;;;;;;4997552;28;92305;-72
2022/04/28 00:54:16;;;;;;;12.57;7.45;;;;;;;;;;4997370;28;92911;-71
2022/04/28 00:56:42;;;;;;;13.90;7.53;;;;;;;;;;4997289;28;92857;-72
2022/04/28 00:59:10;;;;;;;12.43;8.07;;;;;;;;;;4979118;28;94328;-72
2022/04/28 01:01:37;;;;;;;15.70;7.70;;;;;;;;;;4979106;28;96414;-72
2022/04/28 01:04:04;;;;;;;11.93;7.82;;;;;;;;;;5000686;28;92797;-72
2022/04/28 01:06:31;;;;;;;15.43;8.30;;;;;;;;;;4997271;28;92331;-70
2022/04/28 01:08:57;;;;;;;11.00;7.75;;;;;;;;;;4995687;28;94727;-70
2022/04/28 01:11:25;;;;;;;12.82;8.23;;;;;;;;;;4977782;28;94742;-70
2022/04/28 01:13:59;;;;;;;14.07;8.60;;;;;;;;;;4978972;28;97455;-71
2022/04/28 01:16:30;;;;;;;15.20;9.07;;;;;;;;;;4995366;28;95367;-72
2022/04/28 01:18:56;;;;;;;15.52;8.65;;;;;;;;;;4979373;28;92494;-73
2022/04/28 01:21:23;;;;;;;17.13;7.93;;;;;;;;;;4995990;28;96145;-71
2022/04/28 01:23:55;;;;;;;12.95;8.43;;;;;;;;;;4979154;28;94070;-72
2022/04/28 01:26:23;;;;;;;13.68;8.48;;;;;;;;;;5000341;28;92216;-72
2022/04/28 01:28:50;;;;;;;17.05;9.00;;;;;;;;;;4979206;28;94076;-72
2022/04/28 01:31:16;;;;;;;15.23;8.52;;;;;;;;;;4995751;28;92290;-73
2022/04/28 01:33:54;;;;;;;16.52;8.82;;;;;;;;;;4979397;28;95802;-72
2022/04/28 01:36:21;;;;;;;13.52;8.50;;;;;;;;;;4961100;28;97750;-72
2022/04/28 01:38:47;;;;;;;15.45;9.15;;;;;;;;;;4979136;28;92344;-73
2022/04/28 01:41:14;;;;;;;10.13;7.50;;;;;;;;;;4995179;28;95992;-72
2022/04/28 01:43:42;;;;;;;13.57;7.78;;;;;;;;;;4998513;28;96140;-72
2022/04/28 01:46:12;;;;;;;9.45;7.40;;;;;;;;;;4982905;28;92360;-72
2022/04/28 01:48:54;;;;;;;8.60;6.90;;;;;;;;;;4987013;28;92621;-72
2022/04/28 01:54:59;;;;;;;17.35;8.65;;;;;;;;;;4989474;28;94806;-71
2022/04/28 01:57:44;;;;;;;14.80;8.00;;;;;;;;;;4999330;28;92614;-74
2022/04/28 02:00:29;;;;;;;10.95;8.18;;;;;;;;;;4982219;28;92401;-72
2022/04/28 02:03:08;;;;;;;11.00;7.97;;;;;;;;;;4997436;28;95747;-72
2022/04/28 02:05:35;;;;;;;13.57;8.55;;;;;;;;;;5000005;28;93343;-72
2022/04/28 02:08:04;;;;;;;9.43;7.82;;;;;;;;;;4966146;28;92340;-72
2022/04/28 02:10:30;;;;;;;10.75;8.13;;;;;;;;;;4984753;28;95196;-72
2022/04/28 02:12:58;;;;;;;11.98;7.82;;;;;;;;;;4982058;28;92423;-73
2022/04/28 02:15:45;;;;;;;13.73;8.40;;;;;;;;;;4998507;28;92469;-72
2022/04/28 02:18:30;;;;;;;11.80;7.65;;;;;;;;;;4999529;28;92454;-72
2022/04/28 02:20:57;;;;;;;11.25;7.03;;;;;;;;;;4982022;28;91539;-71
2022/04/28 02:23:23;;;;;;;10.32;7.60;;;;;;;;;;4981803;28;94157;-72
2022/04/28 02:25:52;;;;;;;14.27;8.18;;;;;;;;;;4998454;28;96037;-71
2022/04/28 02:28:19;;;;;;;12.80;7.80;;;;;;;;;;4980424;28;94697;-72
2022/04/28 02:30:47;;;;;;;12.77;7.20;;;;;;;;;;4998349;28;96923;-72
2022/04/28 02:33:13;;;;;;;10.10;7.85;;;;;;;;;;4984835;28;96141;-72
2022/04/28 02:35:47;;;;;;;13.45;7.60;;;;;;;;;;4998184;28;95686;-72
2022/04/28 02:38:14;;;;;;;14.35;7.60;;;;;;;;;;4981606;28;96544;-72
2022/04/28 02:40:40;;;;;;;14.45;7.80;;;;;;;;;;4981937;28;92315;-72
2022/04/28 02:43:07;;;;;;;9.45;7.50;;;;;;;;;;4998541;28;96107;-72
2022/04/28 02:45:33;;;;;;;11.82;8.18;;;;;;;;;;4999853;28;92919;-72
2022/04/28 02:48:00;;;;;;;10.30;8.15;;;;;;;;;;4981406;28;92411;-72
2022/04/28 02:50:26;;;;;;;10.93;7.35;;;;;;;;;;4965545;28;95844;-71
2022/04/28 02:52:53;;;;;;;13.05;7.63;;;;;;;;;;4963280;28;99154;-71
2022/04/28 02:55:20;;;;;;;14.90;8.13;;;;;;;;;;5000259;28;92329;-72
2022/04/28 02:57:47;;;;;;;13.95;8.07;;;;;;;;;;4998781;28;93777;-72
2022/04/28 03:00:14;;;;;;;10.40;7.45;;;;;;;;;;4997905;28;92245;-71
2022/04/28 03:02:51;;;;;;;9.73;7.82;;;;;;;;;;4998063;28;95382;-70
2022/04/28 03:05:18;;;;;;;13.63;8.10;;;;;;;;;;4981275;28;96351;-71
2022/04/28 03:10:53;;;;;;;10.30;7.88;;;;;;;;;;4981955;28;95710;-71
2022/04/28 03:13:22;;;;;;;12.20;8.68;;;;;;;;;;4981093;28;95309;-70
2022/04/28 03:15:53;;;;;;;13.10;7.35;;;;;;;;;;4997747;28;92706;-72
2022/04/28 03:18:27;;;;;;;12.18;7.72;;;;;;;;;;4982514;28;94874;-72
2022/04/28 03:20:55;;;;;;;13.98;8.38;;;;;;;;;;4998964;28;92305;-71
2022/04/28 03:23:21;;;;;;;11.90;7.70;;;;;;;;;;4964583;28;95266;-72
2022/04/28 03:25:51;;;;;;;11.73;7.85;;;;;;;;;;4998129;28;93446;-71
2022/04/28 03:28:18;;;;;;;12.98;8.50;;;;;;;;;;4998932;28;92213;-71
2022/04/28 03:30:46;;;;;;;15.85;8.02;;;;;;;;;;4980954;28;96532;-71
2022/04/28 03:33:19;;;;;;;20.45;8.30;;;;;;;;;;4997343;28;96359;-72
2022/04/28 03:35:46;;;;;;;13.13;8.27;;;;;;;;;;4981483;28;92721;-71
2022/04/28 03:38:13;;;;;;;14.90;8.48;;;;;;;;;;4998520;28;92808;-71
2022/04/28 03:40:42;;;;;;;10.43;7.72;;;;;;;;;;5000310;28;94950;-71
2022/04/28 03:43:09;;;;;;;12.05;7.40;;;;;;;;;;4996058;28;95730;-72
2022/04/28 03:45:36;;;;;;;10.75;7.47;;;;;;;;;;4980559;28;95480;-71
2022/04/28 03:48:10;;;;;;;12.82;7.80;;;;;;;;;;4997333;28;92552;-72
2022/04/28 03:50:37;;;;;;;11.18;7.72;;;;;;;;;;4980340;28;95527;-71
2022/04/28 03:53:04;;;;;;;10.60;7.43;;;;;;;;;;4980338;28;95639;-71
2022/04/28 03:55:31;;;;;;;13.18;7.80;;;;;;;;;;4980714;28;92730;-72
2022/04/28 03:57:58;;;;;;;13.90;8.13;;;;;;;;;;4998102;28;93213;-72
2022/04/28 04:00:25;;;;;;;11.57;7.85;;;;;;;;;;4980998;28;95310;-72
2022/04/28 04:02:59;;;;;;;15.77;8.57;;;;;;;;;;4984468;28;92474;-72
2022/04/28 04:05:26;;;;;;;16.65;7.68;;;;;;;;;;4996214;28;95224;-71
2022/04/28 04:07:52;;;;;;;13.20;7.68;;;;;;;;;;4978798;28;94710;-71
2022/04/28 04:10:48;;;;;;;12.00;7.88;;;;;;;;;;4988028;28;96674;-72
2022/04/28 04:13:15;;;;;;;11.25;8.23;;;;;;;;;;4996837;28;95291;-71
2022/04/28 04:15:50;;;;;;;15.70;8.77;;;;;;;;;;4996491;28;93208;-71
2022/04/28 04:18:29;;;;;;;15.80;8.27;;;;;;;;;;4995999;28;93409;-70
2022/04/28 04:21:04;;;;;;;12.85;8.13;;;;;;;;;;4997644;28;93280;-72
2022/04/28 04:23:31;;;;;;;16.88;8.85;;;;;;;;;;4983044;28;92541;-71
2022/04/28 04:26:01;;;;;;;15.07;8.05;;;;;;;;;;4996537;28;95212;-71
2022/04/28 04:28:28;;;;;;;13.82;8.30;;;;;;;;;;4997931;28;92408;-71
2022/04/28 04:34:02;;;;;;;16.00;8.50;;;;;;;;;;4977960;28;98178;-69
2022/04/28 04:36:29;;;;;;;14.63;8.73;;;;;;;;;;4979586;28;92376;-71
2022/04/28 04:38:56;;;;;;;13.80;8.50;;;;;;;;;;4981342;28;95508;-72
2022/04/28 04:41:24;;;;;;;16.63;9.57;;;;;;;;;;4980921;28;95885;-72
2022/04/28 04:43:51;;;;;;;17.08;9.55;;;;;;;;;;4996217;28;92390;-71
2022/04/28 04:46:17;;;;;;;22.17;9.88;;;;;;;;;;4982663;28;94471;-71
2022/04/28 04:49:10;;;;;;;16.30;8.95;;;;;;;;;;4973211;28;92378;-72
2022/04/28 04:51:38;;;;;;;17.65;8.95;;;;;;;;;;4980253;28;94888;-71
2022/04/28 04:54:30;;;;;;;10.05;8.05;;;;;;;;;;4994657;28;94405;-71
2022/04/28 04:56:56;;;;;;;13.68;9.02;;;;;;;;;;4997397;28;92860;-72
2022/04/28 04:59:23;;;;;;;13.30;8.60;;;;;;;;;;4993940;28;95434;-70
2022/04/28 05:01:50;;;;;;;10.95;8.32;;;;;;;;;;4979181;28;95023;-71
2022/04/28 05:04:49;;;;;;;14.73;8.35;;;;;;;;;;4974049;28;92445;-70
2022/04/28 05:07:31;;;;;;;16.23;8.55;;;;;;;;;;4979677;28;94859;-72
2022/04/28 05:09:57;;;;;;;14.50;9.05;;;;;;;;;;4998685;28;96359;-70
2022/04/28 05:12:24;;;;;;;14.30;9.43;;;;;;;;;;4979497;28;96267;-70
2022/04/28 05:15:08;;;;;;;13.93;8.93;;;;;;;;;;4995866;28;95148;-70
2022/04/28 05:17:42;;;;;;;18.08;8.70;;;;;;;;;;4995529;28;91567;-71
2022/04/28 05:20:25;;;;;;;12.82;8.60;;;;;;;;;;4995454;28;96105;-70
2022/04/28 05:23:18;;;;;;;20.20;9.35;;;;;;;;;;4958187;28;92933;-73
2022/04/28 05:26:03;;;;;;;14.88;9.35;;;;;;;;;;4994475;28;94798;-73
2022/04/28 05:28:47;;;;;;;15.90;9.15;;;;;;;;;;4996572;28;94033;-73
2022/04/28 05:31:21;;;;;;;12.75;8.65;;;;;;;;;;4963762;28;95750;-73
2022/04/28 05:34:06;;;;;;;22.20;8.15;;;;;;;;;;4998817;28;92287;-73
2022/04/28 05:36:38;;;;;;;21.30;8.70;;;;;;;;;;4979114;28;96182;-75
2022/04/28 05:39:05;;;;;;;13.85;8.20;;;;;;;;;;4995212;28;92402;-74
2022/04/28 05:41:33;;;;;;;14.98;8.57;;;;;;;;;;4996940;28;92918;-74
2022/04/28 05:46:45;;;;;;;25.00;8.93;;;;;;;;;;4981997;28;92896;-74
2022/04/28 05:49:11;;;;;;;31.27;9.60;;;;;;;;;;4979092;28;95932;-74
2022/04/28 05:51:42;;;;;;;16.33;8.20;;;;;;;;;;4993377;28;98107;-74
2022/04/28 05:54:11;;;;;;;26.77;7.88;;;;;;;;;;4998195;28;92354;-74
2022/04/28 05:56:42;;;;;;;17.75;8.13;;;;;;;;;;5002396;28;93784;-74
2022/04/28 05:59:11;;;;;;;23.10;8.15;;;;;;;;;;4997524;28;92377;-73
2022/04/28 06:01:42;;;;;;;13.50;7.10;;;;;;;;;;4996925;28;93590;-72
2022/04/28 06:04:12;;;;;;;13.60;7.43;;;;;;;;;;4979384;28;95469;-71
2022/04/28 06:06:40;;;;;;;20.27;7.32;;;;;;;;;;4980210;28;92857;-74
2022/04/28 06:09:16;;;;;;;13.45;7.15;;;;;;;;;;4979124;28;94732;-72
2022/04/28 06:11:44;;;;;;;13.85;6.60;;;;;;;;;;4978658;28;95809;-71
2022/04/28 06:14:11;;;;;;;13.88;6.82;;;;;;;;;;4995207;28;92358;-68
2022/04/28 06:17:13;;;;;;;15.17;6.97;;;;;;;;;;4994595;28;94848;-71
2022/04/28 06:19:39;;;;;;;15.95;6.32;;;;;;;;;;4997961;28;95298;-70
2022/04/28 06:22:50;;;;;;;12.15;6.85;;;;;;;;;;4984579;28;92539;-71
2022/04/28 06:25:16;;;;;;;13.65;6.57;;;;;;;;;;4978521;28;96024;-72
2022/04/28 06:27:46;;;;;;;16.25;6.38;;;;;;;;;;4995129;28;92324;-71
2022/04/28 06:30:13;;;;;;;11.40;6.25;;;;;;;;;;4965672;28;95543;-71
2022/04/28 06:32:40;;;;;;;15.52;6.95;;;;;;;;;;4981826;28;95240;-75
2022/04/28 06:35:26;;;;;;;15.07;6.80;;;;;;;;;;4983126;28;91604;-74
2022/04/28 06:37:54;;;;;;;13.30;6.25;;;;;;;;;;4982409;28;94364;-74
2022/04/28 06:40:21;;;;;;;12.82;6.22;;;;;;;;;;4984749;28;96165;-74
2022/04/28 06:42:52;;;;;;;15.02;6.13;;;;;;;;;;4996772;28;95557;-74
2022/04/28 06:45:24;;;;;;;15.95;6.13;;;;;;;;;;4998771;28;93050;-75
2022/04/28 06:48:19;;;;;;;14.38;6.22;;;;;;;;;;4999083;28;92381;-75
2022/04/28 06:51:14;;;;;;;11.40;6.15;;;;;;;;;;4999216;28;94066;-75
2022/04/28 06:53:55;;;;;;;12.57;5.27;;;;;;;;;;4981637;28;95500;-75
2022/04/28 06:56:22;;;;;;;10.55;5.82;;;;;;;;;;4981368;28;92361;-74
2022/04/28 06:59:06;;;;;;;10.32;5.55;;;;;;;;;;4981387;28;95004;-74
2022/04/28 07:01:39;;;;;;;8.95;4.85;;;;;;;;;;4998406;28;95806;-75
2022/04/28 07:04:10;;;;;;;9.10;4.80;;;;;;;;;;4984396;28;92336;-75
2022/04/28 07:06:36;;;;;;;12.65;5.32;;;;;;;;;;4997468;28;94514;-78
2022/04/28 07:09:03;;;;;;;11.35;5.07;;;;;;;;;;4996518;28;94791;-75
2022/04/28 07:11:29;;;;;;;10.55;5.30;;;;;;;;;;4981299;28;97622;-75
2022/04/28 07:14:13;;;;;;;9.65;4.57;;;;;;;;;;4997905;28;93142;-77
2022/04/28 07:16:58;;;;;;;13.25;4.90;;;;;;;;;;4984239;28;92282;-75
2022/04/28 07:19:33;;;;;;;8.90;4.95;;;;;;;;;;4997949;28;96067;-75
2022/04/28 07:22:03;;;;;;;7.82;5.00;;;;;;;;;;4980704;28;96727;-74
2022/04/28 07:24:35;;;;;;;13.90;5.38;;;;;;;;;;4981503;28;92283;-76
2022/04/28 07:27:03;;;;;;;;;;;;;;;;;;4984990;28;95464;-75
2022/04/28 07:29:35;;;;;;;6.40;4.75;;;;;;;;;;4997431;28;116621;-76
2022/04/28 07:32:10;;;;;;;9.57;4.88;;;;;;;;;;4981006;28;94580;-74
2022/04/28 07:35:06;;;;;;;7.05;5.03;;;;;;;;;;4959647;28;95733;-75
2022/04/28 07:38:11;;;;;;;12.73;4.85;;;;;;;;;;4918275;28;92304;-76
2022/04/28 07:40:45;;;;;;;9.18;4.40;;;;;;;;;;4901356;28;95982;-76
2022/04/28 07:43:15;;;;;;;12.23;4.50;;;;;;;;;;4944537;28;95506;-76
2022/04/28 07:45:49;;;;;;;8.80;5.28;;;;;;;;;;4980654;28;92300;-77
2022/04/28 07:48:17;;;;;;;17.08;3.90;;;;;;;;;;4980349;28;95450;-74
2022/04/28 07:50:46;;;;;;;9.02;3.60;;;;;;;;;;5003173;28;95822;-75
2022/04/28 07:53:23;;;;;;;14.73;3.65;;;;;;;;;;5009846;28;91797;-75
2022/04/28 07:58:35;;;;;;;12.68;4.10;;;;;;;;;;4988215;28;92378;-75
2022/04/28 08:01:21;;;;;;;9.27;3.50;;;;;;;;;;4986617;28;95881;-72
2022/04/28 08:03:50;;;;;;;7.15;4.22;;;;;;;;;;4984330;28;94960;-74
2022/04/28 08:06:17;;;;;;;8.73;4.38;;;;;;;;;;5007541;28;92364;-75
2022/04/28 08:08:45;;;;;;;18.35;4.47;;;;;;;;;;4984590;28;93410;-74
2022/04/28 08:11:12;;;;;;;9.65;4.40;;;;;;;;;;4980211;28;95265;-74
2022/04/28 08:13:38;;;;;;;17.13;4.47;;;;;;;;;;4994270;28;92493;-74
2022/04/28 08:16:31;;;;;;;18.33;5.40;;;;;;;;;;5005572;28;93775;-75
2022/04/28 08:18:57;;;;;;;10.85;4.70;;;;;;;;;;4983308;28;91721;-75
2022/04/28 08:21:36;;;;;;;10.88;4.38;;;;;;;;;;5005125;28;94230;-74
2022/04/28 08:24:03;;;;;;;7.35;4.22;;;;;;;;;;5004556;28;95531;-74
2022/04/28 08:26:29;;;;;;;9.40;4.32;;;;;;;;;;4988215;28;94894;-74
2022/04/28 08:28:59;;;;;;;8.02;4.38;;;;;;;;;;5009524;28;98806;-73
2022/04/28 08:31:28;;;;;;;20.77;4.65;;;;;;;;;;4991159;28;94055;-74
2022/04/28 08:33:57;;;;;;;11.40;5.30;;;;;;;;;;4987715;28;92423;-74
2022/04/28 08:36:28;;;;;;;10.20;3.88;;;;;;;;;;5009168;28;96404;-73
2022/04/28 08:38:59;;;;;;;;;;;;;;;;;;4988508;28;93607;-72
2022/04/28 08:41:29;;;;;;;6.78;3.72;;;;;;;;;;5006806;28;119512;-72
2022/04/28 08:44:18;;;;;;;12.57;4.18;;;;;;;;;;5006913;28;92798;-70
2022/04/28 08:46:53;;;;;;;10.50;4.90;;;;;;;;;;5004632;28;92457;-73
2022/04/28 08:49:28;;;;;;;11.43;4.30;;;;;;;;;;4963401;28;95816;-73
2022/04/28 08:52:30;;;;;;;11.27;4.47;;;;;;;;;;4985671;28;95140;-72
2022/04/28 08:55:14;;;;;;;10.90;4.55;;;;;;;;;;4980033;28;93190;-74
2022/04/28 08:57:40;;;;;;;9.00;4.47;;;;;;;;;;4981891;28;94747;-75
2022/04/28 09:00:07;;;;;;;15.02;4.30;;;;;;;;;;4986479;28;92539;-74
2022/04/28 09:02:53;;;;;;;14.35;5.15;;;;;;;;;;4985118;28;93590;-74
2022/04/28 09:05:52;;;;;;;7.43;4.72;;;;;;;;;;4978758;28;93289;-77
2022/04/28 09:08:57;;;;;;;9.70;4.40;;;;;;;;;;4987537;28;92449;-73
2022/04/28 09:11:56;;;;;;;8.18;4.85;;;;;;;;;;4985136;28;94155;-75
2022/04/28 09:14:48;;;;;;;7.82;4.30;;;;;;;;;;4999989;28;95862;-74
2022/04/28 09:17:18;;;;;;;9.25;4.88;;;;;;;;;;4986744;28;92182;-74
2022/04/28 09:19:46;;;;;;;14.05;5.30;;;;;;;;;;4999872;28;96081;-73
2022/04/28 09:22:23;;;;;;;14.60;5.07;;;;;;;;;;5000523;28;96151;-73
2022/04/28 09:24:56;;;;;;;10.40;4.65;;;;;;;;;;5002181;28;95139;-74
2022/04/28 09:27:24;;;;;;;12.77;4.60;;;;;;;;;;5001364;28;96103;-75
2022/04/28 09:29:54;;;;;;;13.63;5.38;;;;;;;;;;4985650;28;92271;-73
2022/04/28 09:32:21;;;;;;;12.80;5.13;;;;;;;;;;4998359;28;95663;-72
2022/04/28 09:35:28;;;;;;;12.48;5.43;;;;;;;;;;4982835;28;92467;-74
2022/04/28 09:38:02;;;;;;;11.60;5.53;;;;;;;;;;4984362;28;91733;-70
2022/04/28 09:43:48;;;;;;;12.90;5.15;;;;;;;;;;4938562;28;95811;-73
2022/04/28 09:46:19;;;;;;;25.75;5.65;;;;;;;;;;5005148;28;95240;-73
2022/04/28 09:48:48;;;;;;;8.67;5.00;;;;;;;;;;4968849;28;95607;-73
2022/04/28 09:51:29;;;;;;;9.10;4.88;;;;;;;;;;4984535;28;92446;-73
2022/04/28 09:54:03;;;;;;;12.55;5.05;;;;;;;;;;4982828;28;94341;-73
2022/04/28 09:56:39;;;;;;;24.90;6.00;;;;;;;;;;4984473;28;95025;-74
2022/04/28 09:59:13;;;;;;;11.93;5.10;;;;;;;;;;4945436;28;92480;-73
2022/04/28 10:01:43;;;;;;;26.95;5.72;;;;;;;;;;4966113;28;95524;-74
2022/04/28 10:04:10;;;;;;;9.15;5.28;;;;;;;;;;4970261;28;95196;-74
2022/04/28 10:06:56;;;;;;;9.57;5.25;;;;;;;;;;4983213;28;92363;-74
2022/04/28 10:09:25;;;;;;;14.80;4.85;;;;;;;;;;4992476;28;93891;-73
2022/04/28 10:11:59;;;;;;;13.38;5.55;;;;;;;;;;4968515;28;94992;-73
2022/04/28 10:14:33;;;;;;;18.80;5.50;;;;;;;;;;4954392;28;96530;-74
2022/04/28 10:17:02;;;;;;;14.73;4.80;;;;;;;;;;4955482;28;95475;-74
2022/04/28 10:19:32;;;;;;;9.10;5.20;;;;;;;;;;4969428;28;92366;-74
2022/04/28 10:22:11;;;;;;;8.63;5.20;;;;;;;;;;4969432;28;94758;-71
2022/04/28 10:33:24;;;;;;;9.63;5.07;;;;;;;;;;4984092;28;93357;-74
2022/04/28 10:35:50;;;;;;;25.05;6.20;;;;;;;;;;4990021;28;93333;-72
2022/04/28 10:38:21;;;;;;;9.65;5.50;;;;;;;;;;4986332;28;96708;-73
2022/04/28 10:40:56;;;;;;;8.27;4.88;;;;;;;;;;4989636;28;92375;-73
2022/04/28 10:43:27;;;;;;;10.80;5.22;;;;;;;;;;5003762;28;94853;-73
2022/04/28 10:45:54;;;;;;;12.55;4.57;;;;;;;;;;4987581;28;93408;-74
2022/04/28 10:48:30;;;;;;;7.35;4.40;;;;;;;;;;4989051;28;93289;-74
2022/04/28 10:51:04;;;;;;;8.38;4.47;;;;;;;;;;4987843;28;93630;-74
2022/04/28 10:53:31;;;;;;;7.10;5.10;;;;;;;;;;4990401;28;93501;-74
2022/04/28 10:56:04;;;;;;;7.93;5.43;;;;;;;;;;4991274;28;91646;-72
2022/04/28 10:58:31;;;;;;;9.45;5.28;;;;;;;;;;5001764;28;93266;-72
2022/04/28 11:00:58;;;;;;;10.82;5.28;;;;;;;;;;5007935;28;92435;-73
2022/04/28 11:03:46;;;;;;;106.32;82.28;;;;;;;;;;5007168;28;96259;-74
2022/04/28 11:06:14;;;;;;;10.27;4.85;;;;;;;;;;4977182;28;96329;-74
2022/04/28 11:08:48;;;;;;;13.25;5.75;;;;;;;;;;5009577;28;92390;-72
2022/04/28 11:11:15;;;;;;;9.25;5.32;;;;;;;;;;5004000;28;93231;-74
2022/04/28 11:13:46;;;;;;;8.60;6.05;;;;;;;;;;5008949;28;94093;-73
2022/04/28 11:16:12;;;;;;;10.65;6.03;;;;;;;;;;4991822;28;92359;-73
2022/04/28 11:18:42;;;;;;;11.60;6.03;;;;;;;;;;4998830;28;93213;-73
2022/04/28 11:21:09;;;;;;;16.52;6.10;;;;;;;;;;4999230;28;91581;-73
2022/04/28 11:23:37;;;;;;;13.55;6.57;;;;;;;;;;4998793;28;92925;-73
2022/04/28 11:26:17;;;;;;;11.20;6.00;;;;;;;;;;4981008;28;95646;-73
2022/04/28 11:28:44;;;;;;;11.23;6.03;;;;;;;;;;4979247;28;94866;-71
2022/04/28 11:31:12;;;;;;;14.50;5.78;;;;;;;;;;4994274;28;96529;-72
2022/04/28 11:33:41;;;;;;;19.45;6.68;;;;;;;;;;4980880;28;94296;-72
2022/04/28 11:36:27;;;;;;;7.63;6.00;;;;;;;;;;4998706;28;92235;-73
2022/04/28 11:38:53;;;;;;;27.60;7.50;;;;;;;;;;5001669;28;93350;-72
2022/04/28 11:41:31;;;;;;;20.98;6.90;;;;;;;;;;4998697;28;92131;-72
2022/04/28 11:43:58;;;;;;;17.20;6.47;;;;;;;;;;4998386;28;94718;-71
2022/04/28 11:46:25;;;;;;;12.80;7.13;;;;;;;;;;4998780;28;92758;-72
2022/04/28 11:48:52;;;;;;;22.80;6.30;;;;;;;;;;4998250;28;92275;-72
2022/04/28 11:51:21;;;;;;;13.10;6.95;;;;;;;;;;4998699;28;93419;-72
2022/04/28 11:53:48;;;;;;;10.63;6.65;;;;;;;;;;4995491;28;95878;-72
2022/04/28 11:56:18;;;;;;;18.80;6.88;;;;;;;;;;4998621;28;92498;-71
2022/04/28 11:58:46;;;;;;;12.57;6.38;;;;;;;;;;4998038;28;95368;-72
2022/04/28 12:01:15;;;;;;;14.45;7.38;;;;;;;;;;5001184;28;92832;-71
2022/04/28 12:03:53;;;;;;;10.52;6.68;;;;;;;;;;4998100;28;92596;-71
2022/04/28 12:06:20;;;;;;;11.50;7.20;;;;;;;;;;4998219;28;93722;-72
2022/04/28 12:08:47;;;;;;;14.82;7.20;;;;;;;;;;4998432;28;92185;-72
2022/04/28 12:19:44;;;;;;;12.30;6.78;;;;;;;;;;4997057;28;95863;-69
2022/04/28 12:22:10;;;;;;;39.90;7.50;;;;;;;;;;4999655;28;92539;-69
2022/04/28 12:24:39;;;;;;;18.38;7.53;;;;;;;;;;5000900;28;92354;-73
2022/04/28 12:27:07;;;;;;;36.40;7.50;;;;;;;;;;4997360;28;93789;-73
2022/04/28 12:29:46;;;;;;;16.98;7.22;;;;;;;;;;4997949;28;92198;-74
2022/04/28 12:32:13;;;;;;;14.63;6.82;;;;;;;;;;4999959;28;93456;-73
2022/04/28 12:35:00;;;;;;;12.73;7.53;;;;;;;;;;4997675;28;93236;-73
2022/04/28 12:37:27;;;;;;;14.00;7.72;;;;;;;;;;4998210;28;91960;-74
2022/04/28 12:39:54;;;;;;;12.55;7.20;;;;;;;;;;4997427;28;92746;-74
2022/04/28 12:42:21;;;;;;;16.05;7.60;;;;;;;;;;4997331;28;93578;-73
2022/04/28 12:44:47;;;;;;;18.73;7.80;;;;;;;;;;4995693;28;94690;-75
2022/04/28 12:47:14;;;;;;;13.13;7.25;;;;;;;;;;5000214;28;96893;-72
2022/04/28 12:49:44;;;;;;;26.52;8.20;;;;;;;;;;5004547;28;92437;-74
2022/04/28 12:52:24;;;;;;;15.25;7.22;;;;;;;;;;5003431;28;93351;-73
2022/04/28 12:54:59;;;;;;;29.52;7.90;;;;;;;;;;5007624;28;93659;-73
2022/04/28 12:57:29;;;;;;;16.10;7.60;;;;;;;;;;5004051;28;92406;-73
2022/04/28 12:59:59;;;;;;;24.42;8.85;;;;;;;;;;5005232;28;94076;-73
2022/04/28 13:02:30;;;;;;;17.85;7.60;;;;;;;;;;5007920;28;92850;-74
2022/04/28 13:05:13;;;;;;;14.32;8.30;;;;;;;;;;5001735;28;92402;-73
2022/04/28 13:07:59;;;;;;;12.10;8.10;;;;;;;;;;5010271;28;93365;-73
2022/04/28 13:10:26;;;;;;;26.20;8.85;;;;;;;;;;5008516;28;94661;-72
2022/04/28 13:12:52;;;;;;;16.63;8.48;;;;;;;;;;5006075;28;95875;-73
2022/04/28 13:15:20;;;;;;;30.52;9.07;;;;;;;;;;5010761;28;93825;-71
2022/04/28 13:17:46;;;;;;;34.90;8.32;;;;;;;;;;5006602;28;92357;-73
2022/04/28 13:20:13;;;;;;;15.15;8.80;;;;;;;;;;5008864;28;93454;-73
2022/04/28 13:22:39;;;;;;;22.20;8.15;;;;;;;;;;5002809;28;93987;-72
2022/04/28 13:25:06;;;;;;;18.05;8.32;;;;;;;;;;5006964;28;93039;-71
2022/04/28 13:27:32;;;;;;;19.77;8.27;;;;;;;;;;4980868;28;94403;-72
2022/04/28 13:29:58;;;;;;;15.52;8.15;;;;;;;;;;4992603;28;94692;-72
2022/04/28 13:32:25;;;;;;;13.00;8.35;;;;;;;;;;5001924;28;93090;-72
2022/04/28 13:34:51;;;;;;;13.55;8.07;;;;;;;;;;5006016;28;95514;-72
2022/04/28 13:37:18;;;;;;;11.85;7.47;;;;;;;;;;5005075;28;92373;-71
2022/04/28 13:39:44;;;;;;;12.68;7.60;;;;;;;;;;5008493;28;93331;-72
2022/04/28 13:42:11;;;;;;;14.30;7.65;;;;;;;;;;5009721;28;95049;-72
2022/04/28 13:44:37;;;;;;;15.02;7.60;;;;;;;;;;5010167;28;92316;-72
2022/04/28 13:47:04;;;;;;;11.60;7.60;;;;;;;;;;5008715;28;92662;-74
2022/04/28 13:49:31;;;;;;;17.63;7.40;;;;;;;;;;5010352;28;93632;-73
2022/04/28 13:51:57;;;;;;;11.18;7.47;;;;;;;;;;5011660;28;91697;-73
2022/04/28 13:54:24;;;;;;;15.85;7.78;;;;;;;;;;5010665;28;94806;-74
2022/04/28 13:56:50;;;;;;;7.82;6.47;;;;;;;;;;5008347;28;93587;-73
2022/04/28 13:59:16;;;;;;;7.78;6.82;;;;;;;;;;5008136;28;95079;-72
2022/04/28 14:01:44;;;;;;;15.70;6.93;;;;;;;;;;5009365;28;93964;-73
2022/04/28 14:04:11;;;;;;;14.73;6.88;;;;;;;;;;5010110;28;92402;-72
2022/04/28 14:06:37;;;;;;;11.50;6.38;;;;;;;;;;5008413;28;93033;-73
2022/04/28 14:09:04;;;;;;;9.98;7.35;;;;;;;;;;5010993;28;92923;-72
2022/04/28 14:11:32;;;;;;;13.93;6.70;;;;;;;;;;5007204;28;92312;-73
2022/04/28 14:13:59;;;;;;;14.20;7.22;;;;;;;;;;5013246;28;93411;-71
2022/04/28 14:16:26;;;;;;;12.60;6.68;;;;;;;;;;5008753;28;92030;-78
2022/04/28 14:18:52;;;;;;;11.23;7.05;;;;;;;;;;5009792;28;92457;-73
2022/04/28 14:21:19;;;;;;;8.77;6.55;;;;;;;;;;5009086;28;93451;-71
2022/04/28 14:23:46;;;;;;;9.38;7.03;;;;;;;;;;5006281;28;94863;-76
2022/04/28 14:26:12;;;;;;;8.50;6.15;;;;;;;;;;5010716;28;95769;-73
2022/04/28 14:28:38;;;;;;;17.17;6.43;;;;;;;;;;5007997;28;93576;-73
2022/04/28 14:31:05;;;;;;;9.68;6.20;;;;;;;;;;5006382;28;93761;-72
2022/04/28 14:33:51;;;;;;;7.25;5.80;;;;;;;;;;5007707;28;92938;-73
2022/04/28 14:36:17;;;;;;;12.70;6.65;;;;;;;;;;5012993;28;92430;-73
2022/04/28 14:38:44;;;;;;;9.13;6.43;;;;;;;;;;5007039;28;94244;-73
2022/04/28 14:41:10;;;;;;;8.90;6.55;;;;;;;;;;5008162;28;93096;-73
2022/04/28 14:43:37;;;;;;;8.38;6.70;;;;;;;;;;5009191;28;92436;-74
2022/04/28 14:46:03;;;;;;;9.00;6.50;;;;;;;;;;5008055;28;93388;-75
2022/04/28 14:52:19;;;;;;;10.77;5.65;;;;;;;;;;5007137;28;95048;-72
2022/04/28 14:54:01;;;;;;;8.35;5.40;;;;;;;;;;5005803;28;92672;-72
2022/04/28 14:56:27;;;;;;;12.48;5.63;;;;;;;;;;4999177;28;93431;-73
2022/04/28 14:58:55;;;;;;;7.30;5.63;;;;;;;;;;5010326;28;92398;-72
2022/04/28 15:01:21;;;;;;;8.70;6.03;;;;;;;;;;5009722;28;93035;-72
2022/04/28 15:03:48;;;;;;;11.10;6.47;;;;;;;;;;5006931;28;92295;-71
2022/04/28 15:06:15;;;;;;;8.43;6.20;;;;;;;;;;5010604;28;93538;-71
2022/04/28 15:08:42;;;;;;;17.85;5.97;;;;;;;;;;5007281;28;94766;-73
2022/04/28 15:11:08;;;;;;;10.77;5.70;;;;;;;;;;5009059;28;92261;-72
2022/04/28 15:13:35;;;;;;;6.78;5.50;;;;;;;;;;5005944;28;94815;-71
2022/04/28 15:16:01;;;;;;;14.13;6.45;;;;;;;;;;5007314;28;94822;-71
2022/04/28 15:18:28;;;;;;;10.32;6.22;;;;;;;;;;4995168;28;92345;-71
2022/04/28 15:20:54;;;;;;;6.25;5.63;;;;;;;;;;5006662;28;93584;-72
2022/04/28 15:23:21;;;;;;;7.68;6.13;;;;;;;;;;5010054;28;92330;-72
2022/04/28 15:25:47;;;;;;;15.00;5.63;;;;;;;;;;5006784;28;92988;-70
2022/04/28 15:28:14;;;;;;;13.95;5.60;;;;;;;;;;4982443;28;94809;-72
2022/04/28 15:30:41;;;;;;;11.15;5.60;;;;;;;;;;5008681;28;91679;-72
2022/04/28 15:33:07;;;;;;;8.95;5.35;;;;;;;;;;5007253;28;93618;-72
2022/04/28 15:35:33;;;;;;;7.80;5.00;;;;;;;;;;4986714;28;94052;-74
2022/04/28 15:38:00;;;;;;;8.63;4.85;;;;;;;;;;4983080;28;94795;-73